Time;durP1;ratioP1;P1;durP2;ratioP2;P2;SDS_P1;SDS_P2;PMS_P1;PMS_P2;Temp;Humidity;BMP_temperature;BMP_pressure;BME280_temperature;BME280_humidity;BME280_pressure;Samples;Min_cycle;Max_cycle;Signal;HPM_P1;HPM_P2
2021/05/01 00:02:09;;;;;;;14.20;11.98;;;15.50;59.90;;;;;;6168864;23;20019;-78
2021/05/01 00:04:36;;;;;;;12.52;11.05;;;15.50;59.90;;;;;;6169511;23;20028;-79
2021/05/01 00:07:02;;;;;;;14.50;12.25;;;15.50;60.00;;;;;;6159031;23;20017;-77
2021/05/01 00:09:27;;;;;;;12.63;11.35;;;15.50;60.00;;;;;;6169192;23;20088;-77
2021/05/01 00:11:53;;;;;;;12.50;11.25;;;15.50;60.00;;;;;;6169222;23;20010;-78
2021/05/01 00:14:20;;;;;;;13.27;11.82;;;15.50;60.10;;;;;;6168776;23;20024;-75
2021/05/01 00:16:46;;;;;;;13.98;11.95;;;15.50;60.10;;;;;;6168894;23;20013;-76
2021/05/01 00:19:12;;;;;;;14.00;11.77;;;15.50;60.10;;;;;;6169305;23;20014;-77
2021/05/01 00:21:38;;;;;;;12.95;11.48;;;15.50;60.10;;;;;;6168816;23;20021;-77
2021/05/01 00:24:04;;;;;;;14.45;12.65;;;15.40;60.10;;;;;;6168893;23;20013;-77
2021/05/01 00:26:30;;;;;;;14.15;12.75;;;15.50;60.20;;;;;;6169151;23;20016;-77
2021/05/01 00:28:56;;;;;;;14.13;12.63;;;15.50;60.20;;;;;;6169244;23;20088;-77
2021/05/01 00:31:22;;;;;;;13.85;12.45;;;15.40;60.20;;;;;;6169222;23;20466;-76
2021/05/01 00:33:47;;;;;;;13.35;12.05;;;15.40;60.20;;;;;;6169415;23;20017;-75
2021/05/01 00:36:13;;;;;;;15.20;13.02;;;15.40;60.20;;;;;;6168196;23;20037;-77
2021/05/01 00:38:39;;;;;;;14.88;13.27;;;15.40;60.20;;;;;;6169762;23;20064;-76
2021/05/01 00:41:05;;;;;;;14.93;13.43;;;15.40;60.30;;;;;;6169142;23;20013;-75
2021/05/01 00:43:31;;;;;;;14.63;12.60;;;15.40;60.30;;;;;;6163872;23;20068;-77
2021/05/01 00:46:04;;;;;;;15.98;12.93;;;15.40;60.40;;;;;;6164158;23;20084;-77
2021/05/01 00:48:31;;;;;;;14.10;12.68;;;15.40;60.40;;;;;;6168571;23;20009;-77
2021/05/01 00:50:58;;;;;;;16.63;13.80;;;15.40;60.40;;;;;;6169124;23;20088;-76
2021/05/01 00:53:24;;;;;;;16.65;13.77;;;15.40;60.40;;;;;;6169162;23;20022;-76
2021/05/01 00:55:50;;;;;;;16.55;13.50;;;15.40;60.40;;;;;;6168300;23;20020;-76
2021/05/01 00:58:16;;;;;;;15.73;14.13;;;15.40;60.40;;;;;;6168092;23;20419;-76
2021/05/01 01:03:26;;;;;;;16.25;13.35;;;15.40;60.50;;;;;;6159814;23;20017;-75
2021/05/01 01:05:53;;;;;;;15.18;13.65;;;15.30;60.50;;;;;;6168707;23;20060;-77
2021/05/01 01:08:18;;;;;;;14.85;13.35;;;15.40;60.50;;;;;;6168556;23;20415;-75
2021/05/01 01:10:45;;;;;;;15.35;13.75;;;15.30;60.50;;;;;;6168674;23;20080;-75
2021/05/01 01:13:10;;;;;;;15.38;13.05;;;15.30;60.50;;;;;;6159888;23;20253;-77
2021/05/01 01:15:36;;;;;;;14.93;12.55;;;15.30;60.50;;;;;;6168893;23;20023;-76
2021/05/01 01:18:02;;;;;;;13.90;12.45;;;15.30;60.50;;;;;;6168296;23;20076;-77
2021/05/01 01:20:28;;;;;;;15.82;14.18;;;15.30;60.60;;;;;;6169817;23;20109;-75
2021/05/01 01:22:55;;;;;;;16.13;13.27;;;15.30;60.50;;;;;;6159239;23;20017;-77
2021/05/01 01:25:21;;;;;;;14.90;13.40;;;15.30;60.50;;;;;;6168800;23;20017;-77
2021/05/01 01:27:48;;;;;;;14.13;12.63;;;15.30;60.50;;;;;;6167956;23;20009;-75
2021/05/01 01:30:17;;;;;;;15.10;13.05;;;15.30;60.60;;;;;;6142527;23;20276;-77
2021/05/01 01:32:43;;;;;;;13.88;12.48;;;15.30;60.60;;;;;;6168369;23;20081;-76
2021/05/01 01:35:11;;;;;;;15.02;13.50;;;15.30;60.60;;;;;;6169468;23;20040;-76
2021/05/01 01:37:44;;;;;;;13.88;12.35;;;15.30;60.60;;;;;;6142067;23;20035;-76
2021/05/01 01:40:12;;;;;;;14.70;13.20;;;15.30;60.50;;;;;;6168482;23;20064;-76
2021/05/01 01:42:40;;;;;;;14.77;13.32;;;15.30;60.60;;;;;;6168107;23;20492;-77
2021/05/01 01:45:07;;;;;;;16.67;13.52;;;15.20;60.60;;;;;;6166653;23;20024;-77
2021/05/01 01:47:33;;;;;;;15.38;13.68;;;15.30;60.70;;;;;;6168156;23;20009;-77
2021/05/01 01:49:59;;;;;;;13.55;12.15;;;15.30;60.70;;;;;;6168336;23;20499;-76
2021/05/01 01:52:25;;;;;;;14.88;13.27;;;15.20;60.60;;;;;;6168386;23;20010;-76
2021/05/01 01:54:51;;;;;;;14.45;12.98;;;15.20;60.60;;;;;;6167801;23;20029;-76
2021/05/01 01:57:17;;;;;;;18.35;12.98;;;15.30;60.70;;;;;;6168782;23;20013;-77
2021/05/01 01:59:43;;;;;;;15.18;13.43;;;15.20;60.70;;;;;;6168230;23;20013;-76
2021/05/01 02:02:10;;;;;;;14.55;13.05;;;15.20;60.70;;;;;;6168869;23;20403;-76
2021/05/01 02:04:36;;;;;;;14.60;13.05;;;15.20;60.70;;;;;;6168311;23;20092;-75
2021/05/01 02:07:02;;;;;;;15.68;12.95;;;15.20;60.60;;;;;;6168365;23;20013;-77
2021/05/01 02:09:28;;;;;;;14.80;13.30;;;15.20;60.70;;;;;;6168422;23;20016;-76
2021/05/01 02:11:54;;;;;;;14.45;12.68;;;15.20;60.60;;;;;;6167821;23;20014;-76
2021/05/01 02:14:20;;;;;;;14.27;12.63;;;15.20;60.60;;;;;;6167789;23;20013;-76
2021/05/01 02:16:46;;;;;;;13.68;11.63;;;15.20;60.60;;;;;;6167845;23;20013;-76
2021/05/01 02:19:12;;;;;;;13.10;11.70;;;15.20;60.60;;;;;;6168841;23;20091;-75
2021/05/01 02:21:37;;;;;;;13.48;12.10;;;15.20;60.50;;;;;;6168153;23;20020;-76
2021/05/01 02:24:05;;;;;;;13.35;11.07;;;15.20;60.50;;;;;;6157922;23;20032;-75
2021/05/01 02:26:30;;;;;;;12.88;10.73;;;15.20;60.50;;;;;;6167989;23;20009;-76
2021/05/01 02:28:56;;;;;;;11.98;10.85;;;15.20;60.50;;;;;;6158506;23;20080;-76
2021/05/01 02:31:22;;;;;;;12.32;11.00;;;15.20;60.50;;;;;;6168457;23;20345;-76
2021/05/01 02:33:48;;;;;;;12.20;10.90;;;15.10;60.50;;;;;;6167945;23;20438;-76
2021/05/01 02:36:15;;;;;;;11.50;9.95;;;15.20;60.50;;;;;;6167101;23;20018;-75
2021/05/01 02:38:41;;;;;;;10.85;9.75;;;15.20;60.50;;;;;;6168198;23;20020;-75
2021/05/01 02:41:07;;;;;;;10.43;9.38;;;15.20;60.50;;;;;;6167608;23;20045;-75
2021/05/01 02:43:32;;;;;;;10.75;9.65;;;15.10;60.40;;;;;;6168032;23;20009;-76
2021/05/01 02:46:02;;;;;;;11.10;9.45;;;15.20;60.40;;;;;;6162262;23;20081;-77
2021/05/01 02:48:29;;;;;;;11.02;9.73;;;15.10;60.40;;;;;;6167873;23;20024;-75
2021/05/01 02:50:55;;;;;;;10.82;9.80;;;15.10;60.40;;;;;;6167806;23;20010;-76
2021/05/01 02:53:21;;;;;;;10.35;9.35;;;15.10;60.40;;;;;;6167871;23;20009;-75
2021/05/01 02:55:48;;;;;;;10.18;9.18;;;15.10;60.50;;;;;;6167324;23;20040;-77
2021/05/01 02:58:14;;;;;;;11.35;9.20;;;15.10;60.40;;;;;;6168232;23;20068;-76
2021/05/01 03:00:40;;;;;;;11.27;9.25;;;15.10;60.50;;;;;;6167813;23;20020;-77
2021/05/01 03:03:06;;;;;;;10.43;9.43;;;15.10;60.50;;;;;;6158028;23;20097;-75
2021/05/01 03:05:32;;;;;;;11.38;9.48;;;15.10;60.50;;;;;;6167906;23;20010;-76
2021/05/01 03:07:58;;;;;;;10.63;9.45;;;15.10;60.50;;;;;;6167982;23;20434;-76
2021/05/01 03:10:26;;;;;;;9.70;8.70;;;15.10;60.50;;;;;;6157431;23;20017;-76
2021/05/01 03:12:53;;;;;;;10.32;9.32;;;15.10;60.50;;;;;;6167736;23;20009;-77
2021/05/01 03:15:20;;;;;;;10.32;9.40;;;15.10;60.40;;;;;;6167673;23;20021;-77
2021/05/01 03:17:47;;;;;;;12.32;8.90;;;15.00;60.40;;;;;;6167610;23;20013;-77
2021/05/01 03:20:14;;;;;;;10.98;9.25;;;15.00;60.40;;;;;;6168087;23;20017;-77
2021/05/01 03:22:41;;;;;;;10.73;9.43;;;15.00;60.40;;;;;;6167741;23;20009;-77
2021/05/01 03:25:10;;;;;;;10.90;9.82;;;15.00;60.40;;;;;;6167421;23;20020;-77
2021/05/01 03:27:36;;;;;;;10.50;9.48;;;15.00;60.40;;;;;;6167410;23;20065;-75
2021/05/01 03:30:04;;;;;;;10.35;9.25;;;15.00;60.40;;;;;;6167309;23;20377;-76
2021/05/01 03:32:30;;;;;;;11.15;10.05;;;15.00;60.50;;;;;;6168036;23;20016;-77
2021/05/01 03:34:57;;;;;;;11.13;10.02;;;15.00;60.50;;;;;;6167085;23;20303;-77
2021/05/01 03:37:23;;;;;;;11.32;10.23;;;15.00;60.50;;;;;;6166900;23;20037;-77
2021/05/01 03:39:49;;;;;;;11.70;10.50;;;15.00;60.40;;;;;;6167742;23;20017;-75
2021/05/01 03:42:15;;;;;;;13.32;11.20;;;15.00;60.40;;;;;;6167786;23;20014;-76
2021/05/01 03:44:40;;;;;;;11.57;10.35;;;15.00;60.40;;;;;;6167233;23;20010;-75
2021/05/01 03:47:06;;;;;;;12.32;11.15;;;15.00;60.40;;;;;;6157044;23;20071;-77
2021/05/01 03:49:32;;;;;;;12.25;10.95;;;15.00;60.40;;;;;;6168566;23;20020;-76
2021/05/01 03:52:01;;;;;;;11.30;10.20;;;15.00;60.30;;;;;;6169427;23;20020;-76
2021/05/01 03:54:27;;;;;;;11.38;10.32;;;15.00;60.30;;;;;;6169176;23;20010;-77
2021/05/01 03:56:53;;;;;;;12.25;11.00;;;15.00;60.30;;;;;;6169164;23;20028;-75
2021/05/01 03:59:25;;;;;;;12.85;11.48;;;15.00;60.30;;;;;;6169060;23;20020;-77
2021/05/01 04:01:51;;;;;;;12.93;11.45;;;15.00;60.40;;;;;;6169071;23;20466;-75
2021/05/01 04:04:18;;;;;;;11.57;10.48;;;15.00;60.40;;;;;;6169281;23;20045;-76
2021/05/01 04:06:44;;;;;;;11.93;10.63;;;15.00;60.40;;;;;;6169211;23;20044;-76
2021/05/01 04:09:10;;;;;;;12.52;10.98;;;15.00;60.40;;;;;;6169368;23;20080;-76
2021/05/01 04:11:36;;;;;;;12.30;11.10;;;14.90;60.40;;;;;;6168760;23;20041;-75
2021/05/01 04:14:02;;;;;;;11.77;10.52;;;14.90;60.40;;;;;;6169654;23;20013;-75
2021/05/01 04:16:28;;;;;;;14.63;10.50;;;14.90;60.40;;;;;;6169016;23;20017;-76
2021/05/01 04:18:54;;;;;;;11.52;10.32;;;14.90;60.40;;;;;;6169926;23;20267;-76
2021/05/01 04:21:21;;;;;;;12.00;10.80;;;14.90;60.50;;;;;;6168668;23;20339;-76
2021/05/01 04:23:46;;;;;;;11.63;10.38;;;14.90;60.50;;;;;;6169787;23;20037;-76
2021/05/01 04:26:14;;;;;;;12.27;10.98;;;14.90;60.50;;;;;;6169170;23;20095;-75
2021/05/01 04:28:40;;;;;;;11.80;10.35;;;14.90;60.60;;;;;;6169502;23;20009;-75
2021/05/01 04:31:06;;;;;;;11.95;10.57;;;14.90;60.60;;;;;;6168251;23;20017;-76
2021/05/01 04:33:32;;;;;;;14.10;10.85;;;14.90;60.60;;;;;;6169207;23;20080;-75
2021/05/01 04:35:58;;;;;;;12.30;11.05;;;14.90;60.60;;;;;;6168769;23;20017;-76
2021/05/01 04:38:25;;;;;;;11.32;10.07;;;14.90;60.70;;;;;;6169423;23;20096;-75
2021/05/01 04:40:51;;;;;;;11.27;10.18;;;14.90;60.70;;;;;;6168703;23;20396;-75
2021/05/01 04:43:21;;;;;;;11.60;9.85;;;14.80;60.60;;;;;;6168651;23;20066;-78
2021/05/01 04:45:47;;;;;;;10.82;9.05;;;14.80;60.80;;;;;;6164250;23;20843;-76
2021/05/01 04:48:14;;;;;;;13.30;8.57;;;14.80;61.10;;;;;;6168605;23;20029;-77
2021/05/01 04:50:40;;;;;;;10.63;8.00;;;14.80;61.40;;;;;;6168406;23;20016;-77
2021/05/01 04:53:06;;;;;;;10.93;7.93;;;14.80;61.80;;;;;;6159014;23;20024;-77
2021/05/01 04:55:32;;;;;;;11.15;6.75;;;14.90;62.00;;;;;;6168734;23;20384;-76
2021/05/01 04:57:58;;;;;;;11.38;6.63;;;15.20;62.20;;;;;;6168786;23;20029;-78
2021/05/01 05:00:25;;;;;;;7.85;5.25;;;15.40;62.10;;;;;;6169025;23;20010;-77
2021/05/01 05:02:51;;;;;;;11.82;4.97;;;15.60;61.90;;;;;;6159358;23;20013;-76
2021/05/01 05:05:18;;;;;;;12.50;5.28;;;15.90;61.70;;;;;;6169153;23;20114;-77
2021/05/01 05:07:45;;;;;;;9.45;4.15;;;16.10;61.80;;;;;;6168344;23;20295;-78
2021/05/01 05:10:13;;;;;;;6.93;4.07;;;16.20;61.60;;;;;;6168496;23;20398;-77
2021/05/01 05:12:39;;;;;;;8.57;4.10;;;16.40;61.60;;;;;;6168845;23;20071;-78
2021/05/01 05:15:06;;;;;;;5.50;4.07;;;16.40;61.50;;;;;;6168545;23;20423;-77
2021/05/01 05:17:32;;;;;;;9.07;3.83;;;16.50;61.60;;;;;;6168141;23;20017;-74
2021/05/01 05:19:59;;;;;;;18.45;4.03;;;16.50;61.50;;;;;;6168303;23;20104;-76
2021/05/01 05:22:25;;;;;;;10.05;3.53;;;16.60;61.50;;;;;;6168635;23;20352;-74
2021/05/01 05:24:51;;;;;;;11.15;5.70;;;16.70;60.80;;;;;;6159298;23;20439;-76
2021/05/01 05:27:17;;;;;;;15.60;6.43;;;16.10;58.50;;;;;;6168328;23;20272;-74
2021/05/01 05:29:50;;;;;;;6.70;4.72;;;15.70;61.50;;;;;;6168512;23;20415;-75
2021/05/01 05:32:17;;;;;;;8.95;4.25;;;15.50;63.30;;;;;;6168548;23;20020;-74
2021/05/01 05:34:43;;;;;;;6.40;3.50;;;15.30;63.90;;;;;;6167904;23;20017;-75
2021/05/01 05:37:10;;;;;;;13.75;3.45;;;15.60;64.60;;;;;;6167978;23;20088;-75
2021/05/01 05:39:39;;;;;;;8.73;3.47;;;16.00;64.10;;;;;;6158634;23;20037;-78
2021/05/01 05:42:06;;;;;;;9.32;3.70;;;16.20;63.70;;;;;;6168813;23;20291;-78
2021/05/01 05:44:33;;;;;;;6.25;3.10;;;16.50;63.20;;;;;;6168591;23;20438;-75
2021/05/01 05:46:58;;;;;;;7.60;2.70;;;16.70;62.90;;;;;;6158504;23;20020;-78
2021/05/01 05:49:24;;;;;;;14.40;3.65;;;16.90;62.50;;;;;;6168055;23;20017;-77
2021/05/01 05:51:50;;;;;;;16.92;3.67;;;17.10;61.90;;;;;;6168007;23;20017;-76
2021/05/01 05:54:16;;;;;;;8.02;2.47;;;17.20;61.90;;;;;;6168388;23;20021;-80
2021/05/01 05:56:42;;;;;;;16.02;2.90;;;17.30;61.80;;;;;;6107077;23;20403;-71
2021/05/01 05:59:08;;;;;;;10.20;3.40;;;17.40;61.80;;;;;;6168146;23;20010;-75
2021/05/01 06:01:39;;;;;;;11.32;2.97;;;17.30;61.80;;;;;;6167701;23;20076;-75
2021/05/01 06:04:13;;;;;;;10.32;2.90;;;17.30;61.80;;;;;;6158446;23;20292;-73
2021/05/01 06:06:42;;;;;;;;;;;17.20;61.10;;;;;;6168261;23;20427;-73
2021/05/01 06:09:09;;;;;;;11.38;2.60;;;17.30;62.70;;;;;;6167960;23;20271;-73
2021/05/01 06:11:37;;;;;;;7.50;3.05;;;17.40;62.40;;;;;;6167572;23;20045;-75
2021/05/01 06:14:04;;;;;;;18.40;2.92;;;17.50;62.50;;;;;;6167732;23;20419;-75
2021/05/01 06:16:31;;;;;;;7.35;2.00;;;17.70;62.50;;;;;;6168298;23;20037;-75
2021/05/01 06:18:58;;;;;;;14.05;3.10;;;17.80;62.50;;;;;;6158448;23;20013;-75
2021/05/01 06:21:24;;;;;;;9.02;3.08;;;17.80;62.40;;;;;;6167642;23;20009;-76
2021/05/01 06:23:51;;;;;;;14.02;2.63;;;17.90;62.30;;;;;;6167624;23;20023;-78
2021/05/01 06:26:26;;;;;;;10.02;2.92;;;17.90;62.00;;;;;;6157600;23;20075;-77
2021/05/01 06:28:54;;;;;;;14.23;2.80;;;18.00;62.80;;;;;;6143915;23;20072;-77
2021/05/01 06:31:27;;;;;;;12.98;2.42;;;18.10;62.00;;;;;;6131792;23;20029;-77
2021/05/01 06:33:54;;;;;;;10.70;2.70;;;18.10;61.90;;;;;;6141912;23;20782;-77
2021/05/01 06:36:24;;;;;;;24.35;3.72;;;18.20;60.20;;;;;;6167654;23;20438;-79
2021/05/01 06:38:59;;;;;;;19.77;4.22;;;17.30;59.10;;;;;;6167927;23;20406;-75
2021/05/01 06:41:47;;;;;;;14.13;3.03;;;16.70;61.90;;;;;;6167437;23;20018;-74
2021/05/01 06:45:07;;;;;;;11.20;3.05;;;17.00;63.90;;;;;;6167650;23;20013;-75
2021/05/01 06:47:47;;;;;;;14.27;3.30;;;17.30;63.60;;;;;;6098010;23;20427;-74
2021/05/01 06:50:14;;;;;;;19.88;3.25;;;17.50;62.90;;;;;;6106943;23;20010;-77
2021/05/01 06:52:45;;;;;;;18.05;3.28;;;17.70;62.40;;;;;;6108778;23;20090;-73
2021/05/01 06:55:14;;;;;;;8.88;2.25;;;17.80;62.20;;;;;;6098587;23;20093;-74
2021/05/01 06:57:49;;;;;;;17.08;3.25;;;18.00;62.00;;;;;;6108653;23;20010;-74
2021/05/01 07:00:18;;;;;;;13.18;3.10;;;18.10;61.80;;;;;;6108773;23;20038;-77
2021/05/01 07:02:46;;;;;;;11.23;3.03;;;17.80;58.80;;;;;;6099294;23;20034;-75
2021/05/01 07:05:38;;;;;;;17.08;3.33;;;17.80;62.00;;;;;;6107292;23;20288;-77
2021/05/01 07:08:05;;;;;;;22.92;3.10;;;17.90;62.80;;;;;;6097580;23;20040;-76
2021/05/01 07:10:31;;;;;;;20.08;3.50;;;17.90;62.80;;;;;;6098992;23;20037;-73
2021/05/01 07:12:59;;;;;;;15.18;4.38;;;17.90;63.10;;;;;;6098972;23;20297;-76
2021/05/01 07:15:26;;;;;;;12.85;5.45;;;17.90;62.90;;;;;;6109128;23;20320;-74
2021/05/01 07:18:02;;;;;;;12.27;8.32;;;17.90;61.70;;;;;;6107976;23;20014;-78
2021/05/01 07:20:41;;;;;;;11.93;8.45;;;17.90;59.30;;;;;;6108401;23;20088;-78
2021/05/01 07:23:13;;;;;;;9.30;7.50;;;17.80;57.80;;;;;;6108617;23;20304;-75
2021/05/01 07:25:42;;;;;;;9.90;8.20;;;17.70;57.20;;;;;;6100488;23;20042;-78
2021/05/01 07:28:12;;;;;;;7.22;6.53;;;17.70;57.00;;;;;;6110551;23;20319;-74
2021/05/01 07:30:43;;;;;;;8.25;7.40;;;17.60;57.50;;;;;;6109910;23;20277;-72
2021/05/01 07:33:17;;;;;;;11.30;7.35;;;17.50;57.90;;;;;;6110244;23;20101;-74
2021/05/01 07:35:50;;;;;;;13.40;7.88;;;17.50;58.00;;;;;;6110779;23;20030;-74
2021/05/01 07:38:16;;;;;;;7.28;6.50;;;17.40;57.70;;;;;;6110775;23;20063;-74
2021/05/01 07:40:43;;;;;;;8.00;6.25;;;17.30;57.40;;;;;;6101138;23;20304;-75
2021/05/01 07:43:14;;;;;;;7.03;5.50;;;17.30;57.10;;;;;;6110860;23;20077;-75
2021/05/01 07:45:40;;;;;;;8.00;5.95;;;17.20;57.10;;;;;;6129648;23;20032;-75
2021/05/01 07:48:09;;;;;;;8.05;5.50;;;17.20;57.30;;;;;;6159891;23;20013;-75
2021/05/01 07:50:36;;;;;;;5.80;5.00;;;17.10;57.50;;;;;;6169443;23;20018;-72
2021/05/01 07:53:03;;;;;;;8.20;5.57;;;17.10;57.80;;;;;;6169437;23;20014;-75
2021/05/01 07:55:29;;;;;;;7.35;5.60;;;17.10;57.90;;;;;;6170168;23;20014;-75
2021/05/01 07:57:55;;;;;;;6.47;5.25;;;17.10;58.20;;;;;;6169096;23;20014;-74
2021/05/01 08:00:22;;;;;;;4.78;4.32;;;17.10;58.30;;;;;;6169388;23;20044;-75
2021/05/01 08:02:48;;;;;;;7.88;5.00;;;17.00;58.40;;;;;;6169711;23;20014;-75
2021/05/01 08:05:16;;;;;;;5.28;4.28;;;17.00;58.60;;;;;;6169422;23;20044;-74
2021/05/01 08:07:42;;;;;;;7.60;4.28;;;17.00;58.70;;;;;;6169828;23;20114;-75
2021/05/01 08:10:09;;;;;;;4.30;3.90;;;17.00;58.90;;;;;;6168859;23;20445;-74
2021/05/01 08:12:35;;;;;;;6.30;4.30;;;16.90;58.90;;;;;;6169520;23;20020;-74
2021/05/01 08:15:02;;;;;;;4.40;3.67;;;16.90;59.00;;;;;;6143528;23;20025;-75
2021/05/01 08:17:28;;;;;;;5.70;3.60;;;16.90;59.20;;;;;;6169219;23;20411;-75
2021/05/01 08:19:54;;;;;;;6.95;3.53;;;16.80;59.30;;;;;;6169260;23;20013;-75
2021/05/01 08:22:20;;;;;;;3.90;3.50;;;16.80;59.50;;;;;;6168994;23;20073;-75
2021/05/01 08:24:46;;;;;;;4.07;3.17;;;16.80;59.60;;;;;;6159761;23;20092;-75
2021/05/01 08:27:12;;;;;;;3.55;2.83;;;16.80;59.70;;;;;;6159484;23;20418;-74
2021/05/01 08:29:38;;;;;;;4.20;3.38;;;16.70;59.70;;;;;;6169022;23;20010;-75
2021/05/01 08:32:04;;;;;;;4.00;3.58;;;16.70;60.00;;;;;;6159248;23;20017;-75
2021/05/01 08:34:33;;;;;;;3.13;2.83;;;16.70;60.10;;;;;;6168900;23;20395;-75
2021/05/01 08:37:00;;;;;;;3.20;2.85;;;16.70;60.10;;;;;;6169451;23;20072;-75
2021/05/01 08:39:26;;;;;;;3.70;2.83;;;16.60;60.20;;;;;;6169815;23;20394;-75
2021/05/01 08:41:52;;;;;;;5.03;3.15;;;16.60;60.30;;;;;;6169135;23;20079;-75
2021/05/01 08:44:17;;;;;;;4.70;2.97;;;16.60;60.40;;;;;;6168997;23;20037;-75
2021/05/01 08:46:46;;;;;;;3.22;2.53;;;16.60;60.50;;;;;;6134782;23;20024;-75
2021/05/01 08:49:12;;;;;;;3.53;3.08;;;16.60;60.60;;;;;;6168671;23;20291;-75
2021/05/01 08:51:41;;;;;;;3.72;2.97;;;16.60;60.90;;;;;;6168897;23;20013;-75
2021/05/01 08:54:10;;;;;;;3.55;3.10;;;16.60;61.10;;;;;;6168924;23;20021;-75
2021/05/01 08:56:36;;;;;;;4.40;2.72;;;16.50;61.40;;;;;;6168926;23;20080;-75
2021/05/01 08:59:02;;;;;;;3.22;2.92;;;16.50;61.50;;;;;;6169533;23;20036;-75
2021/05/01 09:01:28;;;;;;;3.83;2.70;;;16.50;61.60;;;;;;6168782;23;20068;-74
2021/05/01 09:03:54;;;;;;;3.83;2.63;;;16.50;61.60;;;;;;6169179;23;20009;-75
2021/05/01 09:06:22;;;;;;;2.90;2.50;;;16.50;61.80;;;;;;6158860;23;20338;-75
2021/05/01 09:09:00;;;;;;;5.90;2.83;;;16.50;61.70;;;;;;6169013;23;20014;-75
2021/05/01 09:11:52;;;;;;;3.45;2.60;;;16.50;61.70;;;;;;6168758;23;20010;-75
2021/05/01 09:14:25;;;;;;;2.97;2.55;;;16.50;61.60;;;;;;6153765;23;20029;-75
2021/05/01 09:17:12;;;;;;;2.83;2.47;;;16.50;61.70;;;;;;6168657;23;20373;-75
2021/05/01 09:19:39;;;;;;;3.10;2.65;;;16.40;61.60;;;;;;6158728;23;20013;-75
2021/05/01 09:22:08;;;;;;;2.97;2.33;;;16.40;61.70;;;;;;6168726;23;20021;-75
2021/05/01 09:24:35;;;;;;;3.78;2.25;;;16.40;61.70;;;;;;6159721;23;20097;-74
2021/05/01 09:27:01;;;;;;;2.72;2.00;;;16.40;61.80;;;;;;6169357;23;20013;-74
2021/05/01 09:29:28;;;;;;;4.05;2.25;;;16.40;61.80;;;;;;6158318;23;20430;-75
2021/05/01 09:31:54;;;;;;;2.13;1.92;;;16.40;61.80;;;;;;6168351;23;20025;-75
2021/05/01 09:34:36;;;;;;;2.35;1.85;;;16.40;61.80;;;;;;6168498;23;20480;-75
2021/05/01 09:37:02;;;;;;;2.22;2.03;;;16.40;61.80;;;;;;6168530;23;20013;-75
2021/05/01 09:39:31;;;;;;;4.00;2.50;;;16.40;61.80;;;;;;6168603;23;20015;-75
2021/05/01 09:41:57;;;;;;;2.20;1.80;;;16.40;61.90;;;;;;6168445;23;20009;-75
2021/05/01 09:44:25;;;;;;;3.58;2.03;;;16.40;61.90;;;;;;6168144;23;20075;-75
2021/05/01 09:46:53;;;;;;;2.58;1.90;;;16.30;61.80;;;;;;6159871;23;20064;-75
2021/05/01 09:49:24;;;;;;;2.05;1.85;;;16.40;61.90;;;;;;6158345;23;20489;-75
2021/05/01 09:51:58;;;;;;;2.70;1.70;;;16.30;61.90;;;;;;6168745;23;20017;-75
2021/05/01 09:54:39;;;;;;;1.98;1.65;;;16.30;61.90;;;;;;6168546;23;20036;-75
2021/05/01 09:57:16;;;;;;;3.15;1.73;;;16.30;61.90;;;;;;6168150;23;20060;-75
2021/05/01 09:59:54;;;;;;;1.65;1.50;;;16.30;61.90;;;;;;6168360;23;20013;-75
2021/05/01 10:02:30;;;;;;;3.22;2.10;;;16.30;62.00;;;;;;6168350;23;20032;-75
2021/05/01 10:05:09;;;;;;;2.58;1.85;;;16.30;62.10;;;;;;6167856;23;20041;-75
2021/05/01 10:07:36;;;;;;;2.00;1.75;;;16.20;62.10;;;;;;6167945;23;20419;-75
2021/05/01 10:10:03;;;;;;;2.70;1.90;;;16.20;62.10;;;;;;6168412;23;20013;-75
2021/05/01 10:12:41;;;;;;;1.95;1.65;;;16.20;62.10;;;;;;6168270;23;20431;-76
2021/05/01 10:15:17;;;;;;;1.73;1.55;;;16.30;62.10;;;;;;6168537;23;20014;-74
2021/05/01 10:17:45;;;;;;;1.95;1.60;;;16.20;62.10;;;;;;6168554;23;20084;-75
2021/05/01 10:20:12;;;;;;;2.08;1.50;;;16.20;62.10;;;;;;6168137;23;20013;-75
2021/05/01 10:22:42;;;;;;;2.25;1.55;;;16.20;62.20;;;;;;6168238;23;20014;-74
2021/05/01 10:25:20;;;;;;;1.65;1.55;;;16.20;62.20;;;;;;6168476;23;20018;-75
2021/05/01 10:27:59;;;;;;;1.65;1.50;;;16.20;62.20;;;;;;6167788;23;20501;-75
2021/05/01 10:30:58;;;;;;;1.73;1.60;;;16.20;62.20;;;;;;6167606;23;20302;-74
2021/05/01 10:33:33;;;;;;;2.00;1.35;;;16.20;62.10;;;;;;6137886;23;20040;-75
2021/05/01 10:36:14;;;;;;;2.40;1.75;;;16.20;62.30;;;;;;6157772;23;20374;-75
2021/05/01 10:38:40;;;;;;;1.73;1.35;;;16.20;62.40;;;;;;6168070;23;20016;-75
2021/05/01 10:41:18;;;;;;;2.03;1.80;;;16.20;62.40;;;;;;6158007;23;20088;-74
2021/05/01 10:43:49;;;;;;;2.03;1.52;;;16.20;62.40;;;;;;6167934;23;20013;-75
2021/05/01 10:46:25;;;;;;;2.80;1.33;;;16.20;62.50;;;;;;6162324;23;20017;-75
2021/05/01 10:48:54;;;;;;;2.13;1.50;;;16.10;62.50;;;;;;6167980;23;20013;-75
2021/05/01 10:51:23;;;;;;;1.20;1.10;;;16.10;62.50;;;;;;6158071;23;20009;-75
2021/05/01 10:54:12;;;;;;;1.85;1.30;;;16.10;62.60;;;;;;6168511;23;20018;-75
2021/05/01 10:56:46;;;;;;;1.30;1.20;;;16.10;62.50;;;;;;6158302;23;20021;-75
2021/05/01 10:59:17;;;;;;;1.45;1.35;;;16.10;62.60;;;;;;6168074;23;20009;-75
2021/05/01 11:01:48;;;;;;;1.60;1.33;;;16.10;62.70;;;;;;6167817;23;20013;-75
2021/05/01 11:04:27;;;;;;;1.95;1.50;;;16.10;62.70;;;;;;6168529;23;20056;-75
2021/05/01 11:06:58;;;;;;;1.58;1.38;;;16.10;62.70;;;;;;6167781;23;20043;-75
2021/05/01 11:09:24;;;;;;;1.52;1.38;;;16.10;62.70;;;;;;6167825;23;20010;-75
2021/05/01 11:11:58;;;;;;;1.85;1.13;;;16.10;62.80;;;;;;6167387;23;20350;-75
2021/05/01 11:14:31;;;;;;;1.60;1.10;;;16.10;62.80;;;;;;6167822;23;20013;-75
2021/05/01 11:17:13;;;;;;;1.55;1.27;;;16.10;62.80;;;;;;6168369;23;20020;-75
2021/05/01 11:19:46;;;;;;;1.80;1.13;;;16.10;62.80;;;;;;6168081;23;20009;-74
2021/05/01 11:22:20;;;;;;;;;;;16.10;62.80;;;;;;6168976;23;20021;-75
2021/05/01 11:24:46;;;;;;;1.77;1.53;;;16.00;62.60;;;;;;6168481;23;19995;-75
2021/05/01 11:27:13;;;;;;;1.30;1.20;;;16.00;62.80;;;;;;6168721;23;20295;-75
2021/05/01 11:29:40;;;;;;;1.40;1.25;;;16.00;63.50;;;;;;6158508;23;20163;-76
2021/05/01 11:32:07;;;;;;;1.50;1.27;;;16.00;62.90;;;;;;6168079;23;20023;-74
2021/05/01 11:34:34;;;;;;;1.40;1.30;;;16.00;62.90;;;;;;6167750;23;20076;-75
2021/05/01 11:37:05;;;;;;;1.63;1.15;;;16.00;63.00;;;;;;6168066;23;20029;-75
2021/05/01 11:39:31;;;;;;;1.58;1.00;;;16.00;63.00;;;;;;6167522;23;20013;-75
2021/05/01 11:41:57;;;;;;;1.15;1.02;;;16.00;63.00;;;;;;6167363;23;20014;-74
2021/05/01 11:44:25;;;;;;;2.63;1.42;;;16.00;63.00;;;;;;6157623;23;20415;-74
2021/05/01 11:47:05;;;;;;;1.70;1.10;;;16.00;63.10;;;;;;6158851;23;20014;-75
2021/05/01 11:49:31;;;;;;;1.48;1.17;;;16.00;62.90;;;;;;6158741;23;20018;-75
2021/05/01 11:52:13;;;;;;;1.33;1.15;;;16.00;63.00;;;;;;6167494;23;20013;-75
2021/05/01 11:54:57;;;;;;;2.47;1.30;;;16.00;63.00;;;;;;6167591;23;20009;-75
2021/05/01 11:57:48;;;;;;;1.23;1.05;;;15.90;62.90;;;;;;6167254;23;20013;-75
2021/05/01 12:00:38;;;;;;;1.48;1.08;;;16.00;63.00;;;;;;6168101;23;20076;-75
2021/05/01 12:03:06;;;;;;;1.50;1.02;;;16.00;63.00;;;;;;6168255;23;20013;-75
2021/05/01 12:05:37;;;;;;;1.17;1.08;;;15.90;63.10;;;;;;6167590;23;20021;-75
2021/05/01 12:08:21;;;;;;;1.88;1.20;;;15.90;63.10;;;;;;6167125;23;20014;-74
2021/05/01 12:10:51;;;;;;;;;;;15.90;63.10;;;;;;6169137;23;20016;-75
2021/05/01 12:13:24;;;;;;;1.63;1.27;;;15.90;62.90;;;;;;6169921;23;19912;-75
2021/05/01 12:15:59;;;;;;;1.10;0.90;;;15.90;63.20;;;;;;6160383;23;20021;-75
2021/05/01 12:18:46;;;;;;;1.17;1.02;;;15.90;63.20;;;;;;6169319;23;20057;-74
2021/05/01 12:21:20;;;;;;;2.28;1.00;;;15.90;63.10;;;;;;6143820;23;20017;-75
2021/05/01 12:23:48;;;;;;;1.20;0.90;;;15.90;63.20;;;;;;6159968;23;20410;-75
2021/05/01 12:26:32;;;;;;;1.17;1.08;;;15.90;63.30;;;;;;6169271;23;20323;-75
2021/05/01 12:29:24;;;;;;;1.80;1.05;;;15.90;63.20;;;;;;6169242;23;20020;-75
2021/05/01 12:31:51;;;;;;;1.27;0.82;;;15.90;63.20;;;;;;6169001;23;20013;-75
2021/05/01 12:34:19;;;;;;;0.95;0.95;;;15.90;63.30;;;;;;6169201;23;20014;-75
2021/05/01 12:36:47;;;;;;;1.63;1.08;;;15.90;63.40;;;;;;6159796;23;20100;-75
2021/05/01 12:39:18;;;;;;;1.13;0.80;;;15.90;63.40;;;;;;6169160;23;20009;-75
2021/05/01 12:41:47;;;;;;;1.20;1.10;;;15.90;63.40;;;;;;6169283;23;20037;-74
2021/05/01 12:44:36;;;;;;;1.13;0.95;;;15.90;63.40;;;;;;6158698;23;20380;-75
2021/05/01 12:47:04;;;;;;;0.98;0.88;;;15.90;63.40;;;;;;6159760;23;20099;-75
2021/05/01 12:49:34;;;;;;;1.90;1.20;;;15.90;63.50;;;;;;6168949;23;20458;-75
2021/05/01 12:52:18;;;;;;;1.30;1.10;;;15.90;63.50;;;;;;6168562;23;20017;-74
2021/05/01 12:54:44;;;;;;;1.38;0.88;;;15.90;63.50;;;;;;6158561;23;20430;-75